Fykan — LLDJ — position and weather

sailwx.info

Track history (hours):
 
Tides and Currents Weather Stations Pressure Air Temp Water Temp Dewpoint Dewpoint Depression Visibility Wind Speed Wind Dir Waves Ship Positions

Fykan

Last reported at 2016-Jul-27 20:31 UTC. Time now 2016-Jul-27 21:08 UTC.
Position N 66°34' E 012°56'.

Length 52 m; draft 3.3 m.

Type: Ship. MMSI: 259681000.

Date/timePositionNaut miles runAvg speedWind from/ knotsBaromVisibWave heightAir tempDewpointWater temp
2016-Jul-27 20:31N 66°34' E 012°56'3 0.5
2016-Jul-27 14:29N 66°36' E 012°59'5 1.3
2016-Jul-27 10:34N 66°34' E 012°47'5 4.9
2016-Jul-27 09:33N 66°36' E 012°59'0 0.0
2016-Jul-27 06:16N 66°36' E 012°59'4 5.2
2016-Jul-27 05:31N 66°34' E 012°50'4 0.4
2016-Jul-26 20:03N 66°36' E 012°59'3 0.8
2016-Jul-26 16:29N 66°34' E 012°54'1 0.2
2016-Jul-26 10:27N 66°34' E 012°50'5 5.1
2016-Jul-26 09:28N 66°37' E 012°59'0 0.0
2016-Jul-26 05:31N 66°37' E 012°59'5 5.0
2016-Jul-26 04:31N 66°34' E 012°50'1 0.1
2016-Jul-25 18:32N 66°34' E 012°49'6 5.4
2016-Jul-25 17:30N 66°37' E 012°59'1 0.4
2016-Jul-25 14:24N 66°36' E 012°59'5 6.0
2016-Jul-25 13:33N 66°34' E 012°47'1 0.3
2016-Jul-25 11:09N 66°34' E 012°46'4 6.2
2016-Jul-25 10:27N 66°33' E 012°56'4 4.2
2016-Jul-25 09:33N 66°37' E 012°59'1 0.4
2016-Jul-25 06:22N 66°36' E 012°59'5 5.1
2016-Jul-25 05:26N 66°34' E 012°48'3 0.3
2016-Jul-24 21:17N 66°35' E 012°43'6 6.2
2016-Jul-24 20:16N 66°36' E 012°59'0 0.0
2016-Jul-24 15:15N 66°36' E 012°59'4 5.5
2016-Jul-24 14:31N 66°34' E 012°50'0 0.0
2016-Jul-23 10:31N 66°34' E 012°49'5 5.3
2016-Jul-23 09:32N 66°37' E 012°59'0 0.0
2016-Jul-23 06:28N 66°37' E 012°59'0 0.0
2016-Jul-22 17:12N 66°37' E 012°59'5 5.7
2016-Jul-22 16:20N 66°34' E 012°50'1 0.1
2016-Jul-22 10:31N 66°34' E 012°49'1 0.1
2016-Jul-22 04:32N 66°34' E 012°50'9 0.8
2016-Jul-21 16:33N 66°38' E 013°10'6 2.4
2016-Jul-21 14:15N 66°35' E 012°59'5 6.6
2016-Jul-21 13:33N 66°34' E 012°47'6 1.4
2016-Jul-21 09:22N 66°37' E 012°59'1 0.4
2016-Jul-21 06:23N 66°36' E 012°59'4 5.0
2016-Jul-21 05:32N 66°34' E 012°50'4 0.3
2016-Jul-20 14:27N 66°36' E 012°59'5 5.7
2016-Jul-20 13:32N 66°34' E 012°47'1 0.4
2016-Jul-20 10:13N 66°34' E 012°50'4 5.6
2016-Jul-20 09:31N 66°36' E 012°59'0 0.1
2016-Jul-20 06:22N 66°36' E 012°59'5 5.3
2016-Jul-20 05:30N 66°34' E 012°49'0 0.0
2016-Jul-19 22:09N 66°34' E 012°49'4 5.8
2016-Jul-19 21:24N 66°35' E 012°59'3 0.6
2016-Jul-19 16:28N 66°34' E 012°52'1 0.1
2016-Jul-19 04:33N 66°34' E 012°50'4 0.3
2016-Jul-18 14:27N 66°36' E 012°59'5 5.6
2016-Jul-18 13:33N 66°34' E 012°47'1 0.3
2016-Jul-18 11:21N 66°34' E 012°46'5 5.8
2016-Jul-18 10:29N 66°34' E 012°59'1 0.1
2016-Jul-18 06:19N 66°35' E 012°59'4 5.1
2016-Jul-18 05:28N 66°34' E 012°48'0 0.0
2016-Jul-17 21:30N 66°34' E 012°49'  
Track history (hours):
 
Tides and Currents Weather Stations Pressure Air Temp Water Temp Dewpoint Dewpoint Depression Visibility Wind Speed Wind Dir Waves Ship Positions

Fykan

Last reported at 2016-Jul-27 20:31 UTC. Time now 2016-Jul-27 21:08 UTC.
Position N 66°34' E 012°56'.

Length 52 m; draft 3.3 m.

Type: Ship. MMSI: 259681000.

Date/timePositionNaut miles runAvg speedWind from/ knotsBaromVisibWave heightAir tempDewpointWater temp
2016-Jul-27 20:31N 66°34' E 012°56'3 0.5
2016-Jul-27 14:29N 66°36' E 012°59'5 1.3
2016-Jul-27 10:34N 66°34' E 012°47'5 4.9
2016-Jul-27 09:33N 66°36' E 012°59'0 0.0
2016-Jul-27 06:16N 66°36' E 012°59'4 5.2
2016-Jul-27 05:31N 66°34' E 012°50'4 0.4
2016-Jul-26 20:03N 66°36' E 012°59'3 0.8
2016-Jul-26 16:29N 66°34' E 012°54'1 0.2
2016-Jul-26 10:27N 66°34' E 012°50'5 5.1
2016-Jul-26 09:28N 66°37' E 012°59'0 0.0
2016-Jul-26 05:31N 66°37' E 012°59'5 5.0
2016-Jul-26 04:31N 66°34' E 012°50'1 0.1
2016-Jul-25 18:32N 66°34' E 012°49'6 5.4
2016-Jul-25 17:30N 66°37' E 012°59'1 0.4
2016-Jul-25 14:24N 66°36' E 012°59'5 6.0
2016-Jul-25 13:33N 66°34' E 012°47'1 0.3
2016-Jul-25 11:09N 66°34' E 012°46'4 6.2
2016-Jul-25 10:27N 66°33' E 012°56'4 4.2
2016-Jul-25 09:33N 66°37' E 012°59'1 0.4
2016-Jul-25 06:22N 66°36' E 012°59'5 5.1
2016-Jul-25 05:26N 66°34' E 012°48'3 0.3
2016-Jul-24 21:17N 66°35' E 012°43'6 6.2
2016-Jul-24 20:16N 66°36' E 012°59'0 0.0
2016-Jul-24 15:15N 66°36' E 012°59'4 5.5
2016-Jul-24 14:31N 66°34' E 012°50'0 0.0
2016-Jul-23 10:31N 66°34' E 012°49'5 5.3
2016-Jul-23 09:32N 66°37' E 012°59'0 0.0
2016-Jul-23 06:28N 66°37' E 012°59'0 0.0
2016-Jul-22 17:12N 66°37' E 012°59'5 5.7
2016-Jul-22 16:20N 66°34' E 012°50'1 0.1
2016-Jul-22 10:31N 66°34' E 012°49'1 0.1
2016-Jul-22 04:32N 66°34' E 012°50'9 0.8
2016-Jul-21 16:33N 66°38' E 013°10'6 2.4
2016-Jul-21 14:15N 66°35' E 012°59'5 6.6
2016-Jul-21 13:33N 66°34' E 012°47'6 1.4
2016-Jul-21 09:22N 66°37' E 012°59'1 0.4
2016-Jul-21 06:23N 66°36' E 012°59'4 5.0
2016-Jul-21 05:32N 66°34' E 012°50'4 0.3
2016-Jul-20 14:27N 66°36' E 012°59'5 5.7
2016-Jul-20 13:32N 66°34' E 012°47'1 0.4
2016-Jul-20 10:13N 66°34' E 012°50'4 5.6
2016-Jul-20 09:31N 66°36' E 012°59'0 0.1
2016-Jul-20 06:22N 66°36' E 012°59'5 5.3
2016-Jul-20 05:30N 66°34' E 012°49'0 0.0
2016-Jul-19 22:09N 66°34' E 012°49'4 5.8
2016-Jul-19 21:24N 66°35' E 012°59'3 0.6
2016-Jul-19 16:28N 66°34' E 012°52'1 0.1
2016-Jul-19 04:33N 66°34' E 012°50'4 0.3
2016-Jul-18 14:27N 66°36' E 012°59'5 5.6
2016-Jul-18 13:33N 66°34' E 012°47'1 0.3
2016-Jul-18 11:21N 66°34' E 012°46'5 5.8
2016-Jul-18 10:29N 66°34' E 012°59'1 0.1
2016-Jul-18 06:19N 66°35' E 012°59'4 5.1
2016-Jul-18 05:28N 66°34' E 012°48'0 0.0
2016-Jul-17 21:30N 66°34' E 012°49'  

Dump ship's entire track history